aviador You're here:

YTNK Decoded Metar

TENNANT CREEK in _UNIDENTIFIED
Report Time2017-08-24 06:00:00
UTC Time2017-08-24 06:57:35
Flight Rules vfr VFR
Wind140° at 13 kt
W.Decomp.*RWY 11: 11.7 kt HW 5.7 kt RCW
RWY 07: 5.3 kt HW 11.9 kt RCW
W.Rank140° ranks 16
Current wind is above 140° avg. (7.9)
Visibility9999 m
Phenomena:N/A
Clouds:N/A
Expected CloudBase > 10,400 ft AGL from Temp-Dew spread
CeilingNone
Temp29°C (ISA +16)
Dew Point03°C (19% RH)
Heat Index27.4°C
AAT22.8°C
QNH1017 hPa
Density Alt3,097 ft
Elevation1,237 ft
Report Wrong Elevation
Raw Report
YTNK 240600Z AUTO 14013KT 9999 // NCD 29/03 Q1017=

Extra information for YTNK:More info

Metar Taf Metar & Taf Last 4 Metars F.Rules Stats Wind Profile Meteogram Temp Stats Airport Information Weather charts Add Link Nearby VenuesMetar ALERT Operation Metar Decoded Social comments